sensor_id;sensor_type;location;lat;lon;timestamp;P1;durP1;ratioP1;P2;durP2;ratioP2
12986;SDS011;58897;51.960;5.582;2022-08-03T00:01:29;4.93;;;2.03;;
12986;SDS011;58897;51.960;5.582;2022-08-03T00:03:56;4.70;;;2.00;;
12986;SDS011;58897;51.960;5.582;2022-08-03T00:06:22;7.07;;;2.90;;
12986;SDS011;58897;51.960;5.582;2022-08-03T00:08:49;5.00;;;1.90;;
12986;SDS011;58897;51.960;5.582;2022-08-03T00:11:15;7.50;;;2.63;;
12986;SDS011;58897;51.960;5.582;2022-08-03T00:13:42;9.63;;;2.90;;
12986;SDS011;58897;51.960;5.582;2022-08-03T00:16:08;6.43;;;2.97;;
12986;SDS011;58897;51.960;5.582;2022-08-03T00:18:36;4.80;;;2.10;;
12986;SDS011;58897;51.960;5.582;2022-08-03T00:21:02;5.33;;;2.10;;
12986;SDS011;58897;51.960;5.582;2022-08-03T00:23:29;6.83;;;2.63;;
12986;SDS011;58897;51.960;5.582;2022-08-03T00:26:16;6.87;;;2.80;;
12986;SDS011;58897;51.960;5.582;2022-08-03T00:28:42;7.10;;;2.57;;
12986;SDS011;58897;51.960;5.582;2022-08-03T00:31:09;7.07;;;2.30;;
12986;SDS011;58897;51.960;5.582;2022-08-03T00:33:38;6.17;;;2.40;;
12986;SDS011;58897;51.960;5.582;2022-08-03T00:36:26;6.20;;;2.63;;
12986;SDS011;58897;51.960;5.582;2022-08-03T00:38:52;4.60;;;2.10;;
12986;SDS011;58897;51.960;5.582;2022-08-03T00:41:19;6.70;;;2.60;;
12986;SDS011;58897;51.960;5.582;2022-08-03T00:43:45;8.97;;;3.10;;
12986;SDS011;58897;51.960;5.582;2022-08-03T00:46:12;10.50;;;3.77;;
12986;SDS011;58897;51.960;5.582;2022-08-03T00:48:46;7.30;;;2.60;;
12986;SDS011;58897;51.960;5.582;2022-08-03T00:51:14;5.77;;;2.33;;
12986;SDS011;58897;51.960;5.582;2022-08-03T00:53:41;7.27;;;2.37;;
12986;SDS011;58897;51.960;5.582;2022-08-03T00:56:08;8.70;;;2.70;;
12986;SDS011;58897;51.960;5.582;2022-08-03T00:58:38;8.17;;;2.63;;
12986;SDS011;58897;51.960;5.582;2022-08-03T01:01:05;9.47;;;3.03;;
12986;SDS011;58897;51.960;5.582;2022-08-03T01:03:32;10.60;;;3.33;;
12986;SDS011;58897;51.960;5.582;2022-08-03T01:06:13;8.80;;;2.87;;
12986;SDS011;58897;51.960;5.582;2022-08-03T01:11:34;6.97;;;3.30;;
12986;SDS011;58897;51.960;5.582;2022-08-03T01:14:37;9.57;;;3.00;;
12986;SDS011;58897;51.960;5.582;2022-08-03T01:17:15;6.70;;;2.70;;
12986;SDS011;58897;51.960;5.582;2022-08-03T01:31:05;7.83;;;2.83;;
12986;SDS011;58897;51.960;5.582;2022-08-03T01:33:41;9.03;;;2.90;;
12986;SDS011;58897;51.960;5.582;2022-08-03T01:36:11;9.17;;;2.97;;
12986;SDS011;58897;51.960;5.582;2022-08-03T01:38:43;5.43;;;3.03;;
12986;SDS011;58897;51.960;5.582;2022-08-03T01:41:19;5.43;;;2.37;;
12986;SDS011;58897;51.960;5.582;2022-08-03T01:43:47;5.90;;;3.00;;
12986;SDS011;58897;51.960;5.582;2022-08-03T01:46:37;6.97;;;2.90;;
12986;SDS011;58897;51.960;5.582;2022-08-03T01:49:12;7.47;;;2.97;;
12986;SDS011;58897;51.960;5.582;2022-08-03T01:51:40;7.40;;;2.90;;
12986;SDS011;58897;51.960;5.582;2022-08-03T01:54:27;9.43;;;3.40;;
12986;SDS011;58897;51.960;5.582;2022-08-03T01:56:56;9.03;;;3.30;;
12986;SDS011;58897;51.960;5.582;2022-08-03T01:59:24;6.60;;;3.00;;
12986;SDS011;58897;51.960;5.582;2022-08-03T02:01:54;5.07;;;2.90;;
12986;SDS011;58897;51.960;5.582;2022-08-03T02:04:43;9.27;;;3.30;;
12986;SDS011;58897;51.960;5.582;2022-08-03T02:07:12;12.73;;;3.47;;
12986;SDS011;58897;51.960;5.582;2022-08-03T02:09:40;10.63;;;3.83;;
12986;SDS011;58897;51.960;5.582;2022-08-03T02:12:10;7.87;;;2.83;;
12986;SDS011;58897;51.960;5.582;2022-08-03T02:14:39;8.13;;;3.30;;
12986;SDS011;58897;51.960;5.582;2022-08-03T02:17:08;7.50;;;3.53;;
12986;SDS011;58897;51.960;5.582;2022-08-03T02:19:36;6.27;;;3.20;;
12986;SDS011;58897;51.960;5.582;2022-08-03T02:22:04;13.77;;;4.17;;
12986;SDS011;58897;51.960;5.582;2022-08-03T02:24:33;9.20;;;4.30;;
12986;SDS011;58897;51.960;5.582;2022-08-03T02:26:59;10.80;;;3.83;;
12986;SDS011;58897;51.960;5.582;2022-08-03T02:29:30;11.73;;;3.70;;
12986;SDS011;58897;51.960;5.582;2022-08-03T02:32:05;8.17;;;3.60;;
12986;SDS011;58897;51.960;5.582;2022-08-03T02:34:35;6.67;;;3.13;;
12986;SDS011;58897;51.960;5.582;2022-08-03T02:37:03;8.27;;;3.33;;
12986;SDS011;58897;51.960;5.582;2022-08-03T02:39:31;8.10;;;3.33;;
12986;SDS011;58897;51.960;5.582;2022-08-03T02:42:00;11.67;;;5.10;;
12986;SDS011;58897;51.960;5.582;2022-08-03T02:44:31;8.37;;;3.73;;
12986;SDS011;58897;51.960;5.582;2022-08-03T02:47:03;10.37;;;3.63;;
12986;SDS011;58897;51.960;5.582;2022-08-03T02:49:34;9.67;;;4.00;;
12986;SDS011;58897;51.960;5.582;2022-08-03T02:52:17;10.57;;;4.00;;
12986;SDS011;58897;51.960;5.582;2022-08-03T02:54:49;8.70;;;3.60;;
12986;SDS011;58897;51.960;5.582;2022-08-03T02:57:19;9.07;;;4.10;;
12986;SDS011;58897;51.960;5.582;2022-08-03T02:59:47;11.07;;;4.10;;
12986;SDS011;58897;51.960;5.582;2022-08-03T03:02:16;12.73;;;4.30;;
12986;SDS011;58897;51.960;5.582;2022-08-03T03:04:43;7.00;;;3.70;;
12986;SDS011;58897;51.960;5.582;2022-08-03T03:07:31;12.60;;;4.57;;
12986;SDS011;58897;51.960;5.582;2022-08-03T03:10:18;7.90;;;3.93;;
12986;SDS011;58897;51.960;5.582;2022-08-03T03:12:46;10.27;;;4.07;;
12986;SDS011;58897;51.960;5.582;2022-08-03T03:15:15;11.80;;;4.23;;
12986;SDS011;58897;51.960;5.582;2022-08-03T03:17:42;10.70;;;4.10;;
12986;SDS011;58897;51.960;5.582;2022-08-03T03:20:09;10.13;;;4.53;;
12986;SDS011;58897;51.960;5.582;2022-08-03T03:22:37;9.83;;;4.67;;
12986;SDS011;58897;51.960;5.582;2022-08-03T03:25:05;8.27;;;3.50;;
12986;SDS011;58897;51.960;5.582;2022-08-03T03:27:32;9.40;;;3.90;;
12986;SDS011;58897;51.960;5.582;2022-08-03T03:29:59;12.47;;;4.17;;
12986;SDS011;58897;51.960;5.582;2022-08-03T03:32:26;7.67;;;3.80;;
12986;SDS011;58897;51.960;5.582;2022-08-03T03:34:54;9.50;;;3.83;;
12986;SDS011;58897;51.960;5.582;2022-08-03T03:37:21;11.90;;;4.60;;
12986;SDS011;58897;51.960;5.582;2022-08-03T03:39:48;7.07;;;3.67;;
12986;SDS011;58897;51.960;5.582;2022-08-03T03:42:14;10.80;;;4.87;;
12986;SDS011;58897;51.960;5.582;2022-08-03T03:44:41;11.27;;;3.97;;
12986;SDS011;58897;51.960;5.582;2022-08-03T03:47:08;9.93;;;3.80;;
12986;SDS011;58897;51.960;5.582;2022-08-03T03:49:35;10.47;;;4.37;;
12986;SDS011;58897;51.960;5.582;2022-08-03T03:52:03;11.10;;;4.60;;
12986;SDS011;58897;51.960;5.582;2022-08-03T03:54:39;7.43;;;4.30;;
12986;SDS011;58897;51.960;5.582;2022-08-03T03:57:09;17.17;;;6.90;;
12986;SDS011;58897;51.960;5.582;2022-08-03T03:59:39;11.07;;;5.00;;
12986;SDS011;58897;51.960;5.582;2022-08-03T04:02:06;11.23;;;4.30;;
12986;SDS011;58897;51.960;5.582;2022-08-03T04:04:35;11.43;;;4.67;;
12986;SDS011;58897;51.960;5.582;2022-08-03T04:07:22;8.87;;;4.33;;
12986;SDS011;58897;51.960;5.582;2022-08-03T04:10:12;9.73;;;4.33;;
12986;SDS011;58897;51.960;5.582;2022-08-03T04:13:02;10.57;;;5.03;;
12986;SDS011;58897;51.960;5.582;2022-08-03T04:15:35;7.83;;;4.13;;
12986;SDS011;58897;51.960;5.582;2022-08-03T04:18:04;11.10;;;5.47;;
12986;SDS011;58897;51.960;5.582;2022-08-03T04:20:35;11.50;;;4.23;;
12986;SDS011;58897;51.960;5.582;2022-08-03T04:23:04;9.00;;;4.73;;
12986;SDS011;58897;51.960;5.582;2022-08-03T04:25:40;9.83;;;4.53;;
12986;SDS011;58897;51.960;5.582;2022-08-03T04:28:08;8.10;;;4.17;;
12986;SDS011;58897;51.960;5.582;2022-08-03T04:30:55;11.93;;;5.87;;
12986;SDS011;58897;51.960;5.582;2022-08-03T04:33:22;8.90;;;4.53;;
12986;SDS011;58897;51.960;5.582;2022-08-03T04:35:54;11.47;;;4.40;;
12986;SDS011;58897;51.960;5.582;2022-08-03T04:38:28;8.87;;;4.60;;
12986;SDS011;58897;51.960;5.582;2022-08-03T04:40:58;8.87;;;4.47;;
12986;SDS011;58897;51.960;5.582;2022-08-03T04:43:26;10.93;;;5.43;;
12986;SDS011;58897;51.960;5.582;2022-08-03T04:45:53;12.00;;;5.17;;
12986;SDS011;58897;51.960;5.582;2022-08-03T04:48:21;11.50;;;4.80;;
12986;SDS011;58897;51.960;5.582;2022-08-03T04:50:48;12.13;;;4.47;;
12986;SDS011;58897;51.960;5.582;2022-08-03T04:53:15;9.97;;;4.57;;
12986;SDS011;58897;51.960;5.582;2022-08-03T04:55:43;9.37;;;4.37;;
12986;SDS011;58897;51.960;5.582;2022-08-03T04:58:09;11.13;;;4.70;;
12986;SDS011;58897;51.960;5.582;2022-08-03T05:00:36;9.77;;;4.50;;
12986;SDS011;58897;51.960;5.582;2022-08-03T05:03:02;9.10;;;4.63;;
12986;SDS011;58897;51.960;5.582;2022-08-03T05:05:44;11.27;;;5.13;;
12986;SDS011;58897;51.960;5.582;2022-08-03T05:08:15;8.10;;;4.60;;
12986;SDS011;58897;51.960;5.582;2022-08-03T05:10:45;9.60;;;4.03;;
12986;SDS011;58897;51.960;5.582;2022-08-03T05:13:12;9.87;;;4.83;;
12986;SDS011;58897;51.960;5.582;2022-08-03T05:15:39;9.23;;;4.33;;
12986;SDS011;58897;51.960;5.582;2022-08-03T05:18:08;7.60;;;4.60;;
12986;SDS011;58897;51.960;5.582;2022-08-03T05:20:39;10.70;;;5.50;;
12986;SDS011;58897;51.960;5.582;2022-08-03T05:23:06;12.23;;;4.97;;
12986;SDS011;58897;51.960;5.582;2022-08-03T05:25:32;14.33;;;4.70;;
12986;SDS011;58897;51.960;5.582;2022-08-03T05:27:59;11.43;;;4.77;;
12986;SDS011;58897;51.960;5.582;2022-08-03T05:30:26;9.50;;;4.43;;
12986;SDS011;58897;51.960;5.582;2022-08-03T05:32:59;10.07;;;4.80;;
12986;SDS011;58897;51.960;5.582;2022-08-03T05:35:26;8.03;;;4.93;;
12986;SDS011;58897;51.960;5.582;2022-08-03T05:38:14;10.57;;;4.83;;
12986;SDS011;58897;51.960;5.582;2022-08-03T05:40:52;8.83;;;4.50;;
12986;SDS011;58897;51.960;5.582;2022-08-03T05:43:39;8.90;;;5.07;;
12986;SDS011;58897;51.960;5.582;2022-08-03T05:46:05;10.90;;;5.70;;
12986;SDS011;58897;51.960;5.582;2022-08-03T05:48:37;10.30;;;5.40;;
12986;SDS011;58897;51.960;5.582;2022-08-03T05:51:04;10.17;;;4.67;;
12986;SDS011;58897;51.960;5.582;2022-08-03T05:53:32;10.47;;;5.00;;
12986;SDS011;58897;51.960;5.582;2022-08-03T05:55:59;8.33;;;4.23;;
12986;SDS011;58897;51.960;5.582;2022-08-03T05:58:39;11.17;;;4.67;;
12986;SDS011;58897;51.960;5.582;2022-08-03T06:01:06;10.90;;;5.00;;
12986;SDS011;58897;51.960;5.582;2022-08-03T06:03:33;13.87;;;5.97;;
12986;SDS011;58897;51.960;5.582;2022-08-03T06:06:00;10.03;;;4.47;;
12986;SDS011;58897;51.960;5.582;2022-08-03T06:08:26;9.03;;;4.43;;
12986;SDS011;58897;51.960;5.582;2022-08-03T06:10:53;11.70;;;4.40;;
12986;SDS011;58897;51.960;5.582;2022-08-03T06:13:19;9.60;;;4.30;;
12986;SDS011;58897;51.960;5.582;2022-08-03T06:15:45;5.63;;;4.33;;
12986;SDS011;58897;51.960;5.582;2022-08-03T06:18:12;10.43;;;4.23;;
12986;SDS011;58897;51.960;5.582;2022-08-03T06:20:38;10.17;;;4.20;;
12986;SDS011;58897;51.960;5.582;2022-08-03T06:23:05;12.87;;;5.13;;
12986;SDS011;58897;51.960;5.582;2022-08-03T06:25:32;8.13;;;4.90;;
12986;SDS011;58897;51.960;5.582;2022-08-03T06:27:59;7.60;;;4.20;;
12986;SDS011;58897;51.960;5.582;2022-08-03T06:30:25;8.30;;;4.40;;
12986;SDS011;58897;51.960;5.582;2022-08-03T06:32:52;9.77;;;4.43;;
12986;SDS011;58897;51.960;5.582;2022-08-03T06:35:18;7.53;;;3.90;;
12986;SDS011;58897;51.960;5.582;2022-08-03T06:37:49;17.67;;;6.53;;
12986;SDS011;58897;51.960;5.582;2022-08-03T06:40:17;8.97;;;4.77;;
12986;SDS011;58897;51.960;5.582;2022-08-03T06:42:49;10.63;;;5.03;;
12986;SDS011;58897;51.960;5.582;2022-08-03T06:45:16;8.70;;;4.70;;
12986;SDS011;58897;51.960;5.582;2022-08-03T06:47:43;9.10;;;4.67;;
12986;SDS011;58897;51.960;5.582;2022-08-03T06:50:09;9.33;;;4.80;;
12986;SDS011;58897;51.960;5.582;2022-08-03T06:52:43;7.20;;;4.40;;
12986;SDS011;58897;51.960;5.582;2022-08-03T06:55:10;11.17;;;4.67;;
12986;SDS011;58897;51.960;5.582;2022-08-03T06:57:36;13.30;;;4.10;;
12986;SDS011;58897;51.960;5.582;2022-08-03T07:00:03;7.70;;;3.03;;
12986;SDS011;58897;51.960;5.582;2022-08-03T07:02:37;11.53;;;3.67;;
12986;SDS011;58897;51.960;5.582;2022-08-03T07:05:05;8.20;;;3.40;;
12986;SDS011;58897;51.960;5.582;2022-08-03T07:07:32;7.50;;;2.93;;
12986;SDS011;58897;51.960;5.582;2022-08-03T07:09:58;7.70;;;2.43;;
12986;SDS011;58897;51.960;5.582;2022-08-03T07:12:27;7.03;;;2.83;;
12986;SDS011;58897;51.960;5.582;2022-08-03T07:14:55;7.60;;;2.70;;
12986;SDS011;58897;51.960;5.582;2022-08-03T07:17:26;9.23;;;3.03;;
12986;SDS011;58897;51.960;5.582;2022-08-03T07:19:53;12.03;;;3.60;;
12986;SDS011;58897;51.960;5.582;2022-08-03T07:22:19;11.70;;;3.80;;
12986;SDS011;58897;51.960;5.582;2022-08-03T07:24:46;8.57;;;3.37;;
12986;SDS011;58897;51.960;5.582;2022-08-03T07:27:12;7.10;;;2.80;;
12986;SDS011;58897;51.960;5.582;2022-08-03T07:29:41;12.50;;;2.87;;
12986;SDS011;58897;51.960;5.582;2022-08-03T07:32:08;7.10;;;2.87;;
12986;SDS011;58897;51.960;5.582;2022-08-03T07:34:34;6.57;;;3.10;;
12986;SDS011;58897;51.960;5.582;2022-08-03T07:37:01;10.87;;;3.27;;
12986;SDS011;58897;51.960;5.582;2022-08-03T07:39:27;7.27;;;3.37;;
12986;SDS011;58897;51.960;5.582;2022-08-03T07:41:54;10.47;;;3.20;;
12986;SDS011;58897;51.960;5.582;2022-08-03T07:44:20;10.77;;;4.27;;
12986;SDS011;58897;51.960;5.582;2022-08-03T07:46:46;11.37;;;3.10;;
12986;SDS011;58897;51.960;5.582;2022-08-03T07:49:13;9.97;;;2.67;;
12986;SDS011;58897;51.960;5.582;2022-08-03T07:51:39;10.63;;;2.87;;
12986;SDS011;58897;51.960;5.582;2022-08-03T07:54:06;6.70;;;3.10;;
12986;SDS011;58897;51.960;5.582;2022-08-03T07:56:35;12.47;;;3.20;;
12986;SDS011;58897;51.960;5.582;2022-08-03T07:59:02;11.27;;;2.83;;
12986;SDS011;58897;51.960;5.582;2022-08-03T08:01:29;10.43;;;2.80;;
12986;SDS011;58897;51.960;5.582;2022-08-03T08:03:58;10.03;;;3.57;;
12986;SDS011;58897;51.960;5.582;2022-08-03T08:06:24;9.47;;;3.20;;
12986;SDS011;58897;51.960;5.582;2022-08-03T08:08:51;5.60;;;2.50;;
12986;SDS011;58897;51.960;5.582;2022-08-03T08:11:18;8.60;;;2.60;;
12986;SDS011;58897;51.960;5.582;2022-08-03T08:13:47;6.07;;;2.63;;
12986;SDS011;58897;51.960;5.582;2022-08-03T08:16:13;9.93;;;3.03;;
12986;SDS011;58897;51.960;5.582;2022-08-03T08:18:40;7.33;;;2.47;;
12986;SDS011;58897;51.960;5.582;2022-08-03T08:21:06;9.60;;;2.67;;
12986;SDS011;58897;51.960;5.582;2022-08-03T08:23:33;6.67;;;3.13;;
12986;SDS011;58897;51.960;5.582;2022-08-03T08:26:09;9.03;;;2.80;;
12986;SDS011;58897;51.960;5.582;2022-08-03T08:28:36;9.90;;;2.77;;
12986;SDS011;58897;51.960;5.582;2022-08-03T08:31:02;9.90;;;3.07;;
12986;SDS011;58897;51.960;5.582;2022-08-03T08:33:29;6.17;;;2.70;;
12986;SDS011;58897;51.960;5.582;2022-08-03T08:36:16;8.30;;;2.70;;
12986;SDS011;58897;51.960;5.582;2022-08-03T08:38:42;9.30;;;2.73;;
12986;SDS011;58897;51.960;5.582;2022-08-03T08:41:10;9.10;;;2.97;;
12986;SDS011;58897;51.960;5.582;2022-08-03T08:43:38;9.70;;;2.73;;
12986;SDS011;58897;51.960;5.582;2022-08-03T08:46:04;6.77;;;2.73;;
12986;SDS011;58897;51.960;5.582;2022-08-03T08:48:33;7.00;;;2.37;;
12986;SDS011;58897;51.960;5.582;2022-08-03T08:51:01;9.00;;;2.30;;
12986;SDS011;58897;51.960;5.582;2022-08-03T08:53:28;10.17;;;2.50;;
12986;SDS011;58897;51.960;5.582;2022-08-03T08:55:58;6.03;;;2.53;;
12986;SDS011;58897;51.960;5.582;2022-08-03T08:58:33;10.80;;;2.70;;
12986;SDS011;58897;51.960;5.582;2022-08-03T09:01:04;8.97;;;2.30;;
12986;SDS011;58897;51.960;5.582;2022-08-03T09:03:32;8.73;;;2.53;;
12986;SDS011;58897;51.960;5.582;2022-08-03T09:05:59;9.40;;;2.37;;
12986;SDS011;58897;51.960;5.582;2022-08-03T09:08:27;8.63;;;2.63;;
12986;SDS011;58897;51.960;5.582;2022-08-03T09:10:55;8.50;;;2.60;;
12986;SDS011;58897;51.960;5.582;2022-08-03T09:13:21;9.60;;;2.40;;
12986;SDS011;58897;51.960;5.582;2022-08-03T09:15:53;7.73;;;2.87;;
12986;SDS011;58897;51.960;5.582;2022-08-03T09:18:41;9.57;;;2.40;;
12986;SDS011;58897;51.960;5.582;2022-08-03T09:23:58;9.73;;;2.87;;
12986;SDS011;58897;51.960;5.582;2022-08-03T09:26:33;9.80;;;2.73;;
12986;SDS011;58897;51.960;5.582;2022-08-03T09:29:02;9.83;;;2.60;;
12986;SDS011;58897;51.960;5.582;2022-08-03T09:31:40;12.20;;;3.27;;
12986;SDS011;58897;51.960;5.582;2022-08-03T09:34:11;6.93;;;2.57;;
12986;SDS011;58897;51.960;5.582;2022-08-03T09:36:46;8.13;;;2.40;;
12986;SDS011;58897;51.960;5.582;2022-08-03T09:39:14;9.00;;;2.70;;
12986;SDS011;58897;51.960;5.582;2022-08-03T09:41:43;11.53;;;2.87;;
12986;SDS011;58897;51.960;5.582;2022-08-03T09:44:12;12.87;;;4.27;;
12986;SDS011;58897;51.960;5.582;2022-08-03T09:46:52;9.57;;;2.37;;
12986;SDS011;58897;51.960;5.582;2022-08-03T09:49:21;12.23;;;3.00;;
12986;SDS011;58897;51.960;5.582;2022-08-03T09:51:48;11.37;;;3.10;;
12986;SDS011;58897;51.960;5.582;2022-08-03T09:54:35;9.40;;;2.60;;
12986;SDS011;58897;51.960;5.582;2022-08-03T09:57:01;11.77;;;3.43;;
12986;SDS011;58897;51.960;5.582;2022-08-03T09:59:28;12.17;;;3.27;;
12986;SDS011;58897;51.960;5.582;2022-08-03T10:01:57;13.00;;;3.27;;
12986;SDS011;58897;51.960;5.582;2022-08-03T10:04:25;14.10;;;3.23;;
12986;SDS011;58897;51.960;5.582;2022-08-03T10:09:52;11.60;;;4.13;;
12986;SDS011;58897;51.960;5.582;2022-08-03T10:12:20;13.27;;;3.03;;
12986;SDS011;58897;51.960;5.582;2022-08-03T10:14:47;11.67;;;3.20;;
12986;SDS011;58897;51.960;5.582;2022-08-03T10:17:13;12.87;;;3.57;;
12986;SDS011;58897;51.960;5.582;2022-08-03T10:19:41;10.73;;;3.30;;
12986;SDS011;58897;51.960;5.582;2022-08-03T10:22:12;6.40;;;2.53;;
12986;SDS011;58897;51.960;5.582;2022-08-03T10:24:48;9.57;;;3.13;;
12986;SDS011;58897;51.960;5.582;2022-08-03T10:27:17;12.87;;;2.50;;
12986;SDS011;58897;51.960;5.582;2022-08-03T10:29:46;11.13;;;3.20;;
12986;SDS011;58897;51.960;5.582;2022-08-03T10:32:21;9.27;;;2.67;;
12986;SDS011;58897;51.960;5.582;2022-08-03T10:34:53;12.23;;;3.23;;
12986;SDS011;58897;51.960;5.582;2022-08-03T10:40:27;16.53;;;4.07;;
12986;SDS011;58897;51.960;5.582;2022-08-03T10:43:25;11.03;;;3.10;;
12986;SDS011;58897;51.960;5.582;2022-08-03T10:45:53;8.30;;;2.77;;
12986;SDS011;58897;51.960;5.582;2022-08-03T10:48:21;12.40;;;3.00;;
12986;SDS011;58897;51.960;5.582;2022-08-03T10:50:49;12.47;;;3.13;;
12986;SDS011;58897;51.960;5.582;2022-08-03T10:53:15;13.97;;;3.20;;
12986;SDS011;58897;51.960;5.582;2022-08-03T10:56:00;8.97;;;2.57;;
12986;SDS011;58897;51.960;5.582;2022-08-03T10:59:05;9.10;;;2.73;;
12986;SDS011;58897;51.960;5.582;2022-08-03T11:01:50;8.83;;;3.23;;
12986;SDS011;58897;51.960;5.582;2022-08-03T11:04:24;14.47;;;3.60;;
12986;SDS011;58897;51.960;5.582;2022-08-03T11:09:52;10.10;;;2.80;;
12986;SDS011;58897;51.960;5.582;2022-08-03T11:14:57;12.00;;;2.77;;
12986;SDS011;58897;51.960;5.582;2022-08-03T11:17:31;7.83;;;2.93;;
12986;SDS011;58897;51.960;5.582;2022-08-03T11:20:41;8.97;;;2.87;;
12986;SDS011;58897;51.960;5.582;2022-08-03T11:23:09;12.53;;;3.37;;
12986;SDS011;58897;51.960;5.582;2022-08-03T11:28:33;13.53;;;2.70;;
12986;SDS011;58897;51.960;5.582;2022-08-03T11:34:09;7.93;;;2.50;;
12986;SDS011;58897;51.960;5.582;2022-08-03T11:39:42;8.33;;;3.10;;
12986;SDS011;58897;51.960;5.582;2022-08-03T11:44:47;12.80;;;3.20;;
12986;SDS011;58897;51.960;5.582;2022-08-03T11:47:15;8.50;;;2.97;;
12986;SDS011;58897;51.960;5.582;2022-08-03T11:49:47;9.77;;;2.93;;
12986;SDS011;58897;51.960;5.582;2022-08-03T11:52:14;9.93;;;2.40;;
12986;SDS011;58897;51.960;5.582;2022-08-03T11:54:42;6.83;;;2.07;;
12986;SDS011;58897;51.960;5.582;2022-08-03T11:57:09;11.37;;;2.83;;
12986;SDS011;58897;51.960;5.582;2022-08-03T11:59:36;8.67;;;2.40;;
12986;SDS011;58897;51.960;5.582;2022-08-03T12:02:10;10.37;;;2.63;;
12986;SDS011;58897;51.960;5.582;2022-08-03T12:07:19;14.23;;;3.53;;
12986;SDS011;58897;51.960;5.582;2022-08-03T12:10:10;13.07;;;2.50;;
12986;SDS011;58897;51.960;5.582;2022-08-03T12:12:39;9.57;;;2.40;;
12986;SDS011;58897;51.960;5.582;2022-08-03T12:15:11;10.30;;;2.63;;
12986;SDS011;58897;51.960;5.582;2022-08-03T12:17:39;9.33;;;3.07;;
12986;SDS011;58897;51.960;5.582;2022-08-03T12:20:07;10.17;;;3.27;;
12986;SDS011;58897;51.960;5.582;2022-08-03T12:22:36;6.60;;;1.97;;
12986;SDS011;58897;51.960;5.582;2022-08-03T12:25:04;8.70;;;2.37;;
12986;SDS011;58897;51.960;5.582;2022-08-03T12:27:31;6.87;;;2.50;;
12986;SDS011;58897;51.960;5.582;2022-08-03T12:29:58;9.90;;;2.80;;
12986;SDS011;58897;51.960;5.582;2022-08-03T12:32:29;13.40;;;2.83;;
12986;SDS011;58897;51.960;5.582;2022-08-03T12:34:57;16.10;;;4.33;;
12986;SDS011;58897;51.960;5.582;2022-08-03T12:37:26;13.77;;;3.27;;
12986;SDS011;58897;51.960;5.582;2022-08-03T12:39:54;8.50;;;2.80;;
12986;SDS011;58897;51.960;5.582;2022-08-03T12:44:57;6.80;;;2.07;;
12986;SDS011;58897;51.960;5.582;2022-08-03T12:47:24;10.83;;;3.27;;
12986;SDS011;58897;51.960;5.582;2022-08-03T12:49:51;10.27;;;2.80;;
12986;SDS011;58897;51.960;5.582;2022-08-03T12:52:19;10.43;;;2.77;;
12986;SDS011;58897;51.960;5.582;2022-08-03T12:54:56;7.17;;;2.43;;
12986;SDS011;58897;51.960;5.582;2022-08-03T12:57:24;6.83;;;2.30;;
12986;SDS011;58897;51.960;5.582;2022-08-03T13:00:12;5.83;;;2.27;;
12986;SDS011;58897;51.960;5.582;2022-08-03T13:02:53;9.33;;;2.77;;
12986;SDS011;58897;51.960;5.582;2022-08-03T13:05:44;5.90;;;2.03;;
12986;SDS011;58897;51.960;5.582;2022-08-03T13:08:18;7.00;;;2.47;;
12986;SDS011;58897;51.960;5.582;2022-08-03T13:10:45;5.57;;;2.03;;
12986;SDS011;58897;51.960;5.582;2022-08-03T13:13:12;10.93;;;2.70;;
12986;SDS011;58897;51.960;5.582;2022-08-03T13:15:39;7.10;;;2.83;;
12986;SDS011;58897;51.960;5.582;2022-08-03T13:18:13;5.87;;;2.20;;
12986;SDS011;58897;51.960;5.582;2022-08-03T13:20:42;6.80;;;2.17;;
12986;SDS011;58897;51.960;5.582;2022-08-03T13:23:09;10.43;;;2.37;;
12986;SDS011;58897;51.960;5.582;2022-08-03T13:25:47;7.73;;;2.60;;
12986;SDS011;58897;51.960;5.582;2022-08-03T13:28:21;8.43;;;2.80;;
12986;SDS011;58897;51.960;5.582;2022-08-03T13:30:48;8.33;;;2.93;;
12986;SDS011;58897;51.960;5.582;2022-08-03T13:33:14;7.43;;;2.97;;
12986;SDS011;58897;51.960;5.582;2022-08-03T13:35:40;6.27;;;2.20;;
12986;SDS011;58897;51.960;5.582;2022-08-03T13:38:07;6.50;;;2.50;;
12986;SDS011;58897;51.960;5.582;2022-08-03T13:40:33;11.07;;;2.70;;
12986;SDS011;58897;51.960;5.582;2022-08-03T13:43:06;7.60;;;2.77;;
12986;SDS011;58897;51.960;5.582;2022-08-03T13:45:33;9.73;;;3.27;;
12986;SDS011;58897;51.960;5.582;2022-08-03T13:47:59;9.53;;;3.03;;
12986;SDS011;58897;51.960;5.582;2022-08-03T13:50:27;8.97;;;2.93;;
12986;SDS011;58897;51.960;5.582;2022-08-03T13:52:53;6.47;;;2.73;;
12986;SDS011;58897;51.960;5.582;2022-08-03T13:55:20;8.33;;;2.87;;
12986;SDS011;58897;51.960;5.582;2022-08-03T13:57:46;7.57;;;2.53;;
12986;SDS011;58897;51.960;5.582;2022-08-03T14:00:32;8.70;;;2.93;;
12986;SDS011;58897;51.960;5.582;2022-08-03T14:02:59;7.10;;;2.63;;
12986;SDS011;58897;51.960;5.582;2022-08-03T14:05:38;12.03;;;3.27;;
12986;SDS011;58897;51.960;5.582;2022-08-03T14:08:05;11.67;;;3.37;;
12986;SDS011;58897;51.960;5.582;2022-08-03T14:10:32;9.00;;;3.10;;
12986;SDS011;58897;51.960;5.582;2022-08-03T14:13:00;7.53;;;2.77;;
12986;SDS011;58897;51.960;5.582;2022-08-03T14:15:26;8.17;;;2.77;;
12986;SDS011;58897;51.960;5.582;2022-08-03T14:17:54;7.30;;;2.90;;
12986;SDS011;58897;51.960;5.582;2022-08-03T14:20:23;8.30;;;2.90;;
12986;SDS011;58897;51.960;5.582;2022-08-03T14:23:10;8.67;;;2.77;;
12986;SDS011;58897;51.960;5.582;2022-08-03T14:25:39;7.37;;;2.37;;
12986;SDS011;58897;51.960;5.582;2022-08-03T14:28:15;7.13;;;2.60;;
12986;SDS011;58897;51.960;5.582;2022-08-03T14:30:42;7.50;;;2.73;;
12986;SDS011;58897;51.960;5.582;2022-08-03T14:33:09;6.90;;;2.80;;
12986;SDS011;58897;51.960;5.582;2022-08-03T14:35:35;10.30;;;3.03;;
12986;SDS011;58897;51.960;5.582;2022-08-03T14:38:02;6.53;;;2.77;;
12986;SDS011;58897;51.960;5.582;2022-08-03T14:40:28;5.53;;;2.43;;
12986;SDS011;58897;51.960;5.582;2022-08-03T14:42:55;6.60;;;2.27;;
12986;SDS011;58897;51.960;5.582;2022-08-03T14:45:21;7.70;;;2.27;;
12986;SDS011;58897;51.960;5.582;2022-08-03T14:47:48;7.60;;;2.93;;
12986;SDS011;58897;51.960;5.582;2022-08-03T14:50:34;6.07;;;2.57;;
12986;SDS011;58897;51.960;5.582;2022-08-03T14:53:10;5.33;;;2.33;;
12986;SDS011;58897;51.960;5.582;2022-08-03T14:55:37;5.70;;;2.23;;
12986;SDS011;58897;51.960;5.582;2022-08-03T14:58:16;5.97;;;2.37;;
12986;SDS011;58897;51.960;5.582;2022-08-03T15:00:45;6.50;;;2.10;;
12986;SDS011;58897;51.960;5.582;2022-08-03T15:03:12;7.37;;;2.67;;
12986;SDS011;58897;51.960;5.582;2022-08-03T15:05:42;8.93;;;2.77;;
12986;SDS011;58897;51.960;5.582;2022-08-03T15:08:08;7.40;;;2.20;;
12986;SDS011;58897;51.960;5.582;2022-08-03T15:10:35;7.27;;;3.10;;
12986;SDS011;58897;51.960;5.582;2022-08-03T15:13:10;6.07;;;2.20;;
12986;SDS011;58897;51.960;5.582;2022-08-03T15:15:38;6.77;;;2.27;;
12986;SDS011;58897;51.960;5.582;2022-08-03T15:18:05;7.83;;;2.80;;
12986;SDS011;58897;51.960;5.582;2022-08-03T15:20:32;6.87;;;2.87;;
12986;SDS011;58897;51.960;5.582;2022-08-03T15:23:09;5.73;;;2.50;;
12986;SDS011;58897;51.960;5.582;2022-08-03T15:25:36;5.43;;;2.37;;
12986;SDS011;58897;51.960;5.582;2022-08-03T15:28:23;9.20;;;3.17;;
12986;SDS011;58897;51.960;5.582;2022-08-03T15:30:52;6.00;;;2.30;;
12986;SDS011;58897;51.960;5.582;2022-08-03T15:33:19;6.33;;;2.50;;
12986;SDS011;58897;51.960;5.582;2022-08-03T15:35:46;7.30;;;2.70;;
12986;SDS011;58897;51.960;5.582;2022-08-03T15:38:13;10.87;;;3.23;;
12986;SDS011;58897;51.960;5.582;2022-08-03T15:40:39;7.57;;;2.47;;
12986;SDS011;58897;51.960;5.582;2022-08-03T15:43:06;6.87;;;2.13;;
12986;SDS011;58897;51.960;5.582;2022-08-03T15:45:32;6.97;;;3.10;;
12986;SDS011;58897;51.960;5.582;2022-08-03T15:48:01;8.93;;;3.07;;